Time;durP1;ratioP1;P1;durP2;ratioP2;P2;SDS_P1;SDS_P2;PMS_P1;PMS_P2;Temp;Humidity;BMP_temperature;BMP_pressure;BME280_temperature;BME280_humidity;BME280_pressure;Samples;Min_cycle;Max_cycle;Signal;HPM_P1;HPM_P2
2022/03/03 00:01:50;;;;;;;;;;;20.20;37.30;;;;;;5094878;28;19957;-43
2022/03/03 00:04:17;;;;;;;;;;;20.20;37.30;;;;;;5112648;28;20002;-46
2022/03/03 00:06:44;;;;;;;;;;;20.20;37.30;;;;;;5087990;28;19920;-49
2022/03/03 00:09:11;;;;;;;;;;;20.20;37.30;;;;;;5116918;28;19920;-46
2022/03/03 00:11:39;;;;;;;;;;;20.20;37.30;;;;;;5116195;28;19954;-43
2022/03/03 00:14:07;;;;;;;;;;;20.20;37.90;;;;;;5094731;28;19924;-45
2022/03/03 00:16:34;;;;;;;;;;;20.20;37.30;;;;;;5112125;28;19938;-45
2022/03/03 00:19:00;;;;;;;;;;;20.20;37.20;;;;;;5103708;28;19936;-43
2022/03/03 00:21:27;;;;;;;;;;;20.20;37.30;;;;;;5117227;28;19989;-43
2022/03/03 00:23:54;;;;;;;;;;;20.20;37.20;;;;;;5092851;28;19927;-44
2022/03/03 00:26:24;;;;;;;;;;;20.20;37.20;;;;;;5095582;28;20329;-43
2022/03/03 00:28:52;;;;;;;;;;;20.20;37.20;;;;;;5102339;28;19977;-46
2022/03/03 00:31:18;;;;;;;;;;;20.20;37.20;;;;;;5087143;28;19928;-44
2022/03/03 00:33:45;;;;;;;;;;;20.20;37.20;;;;;;5094946;28;20345;-43
2022/03/03 00:36:12;;;;;;;;;;;20.20;37.20;;;;;;5099374;28;20006;-46
2022/03/03 00:38:39;;;;;;;;;;;20.20;37.20;;;;;;5101246;28;19919;-46
2022/03/03 00:41:05;;;;;;;;;;;20.20;37.20;;;;;;5101421;28;19924;-44
2022/03/03 00:43:32;;;;;;;;;;;20.20;37.20;;;;;;5098892;28;19920;-46
2022/03/03 00:46:00;;;;;;;;;;;20.20;37.20;;;;;;5097851;28;19926;-43
2022/03/03 00:48:30;;;;;;;;;;;20.20;37.10;;;;;;5099021;28;20030;-43
2022/03/03 00:50:59;;;;;;;;;;;20.20;37.20;;;;;;5100147;28;19931;-42
2022/03/03 00:53:26;;;;;;;;;;;20.20;37.20;;;;;;5098309;28;20113;-46
2022/03/03 00:55:53;;;;;;;;;;;20.20;37.20;;;;;;5098394;28;19919;-49
2022/03/03 00:58:20;;;;;;;;;;;20.20;37.20;;;;;;5095550;28;19919;-43
2022/03/03 01:00:47;;;;;;;;;;;20.20;37.10;;;;;;5107711;28;19924;-47
2022/03/03 01:03:18;;;;;;;;;;;20.20;37.10;;;;;;5094162;28;19924;-45
2022/03/03 01:05:44;;;;;;;;;;;20.20;37.10;;;;;;5116244;28;19945;-47
2022/03/03 01:08:12;;;;;;;;;;;20.20;37.10;;;;;;5098265;28;19941;-48
2022/03/03 01:10:39;;;;;;;;;;;20.20;37.10;;;;;;5093505;28;19945;-46
2022/03/03 01:13:06;;;;;;;;;;;20.20;37.10;;;;;;5097647;28;19958;-48
2022/03/03 01:15:33;;;;;;;;;;;20.20;37.10;;;;;;5096932;28;20023;-43
2022/03/03 01:18:02;;;;;;;;;;;20.20;37.10;;;;;;5099102;28;19924;-43
2022/03/03 01:20:30;;;;;;;;;;;20.20;37.10;;;;;;5099262;28;19962;-47
2022/03/03 01:22:57;;;;;;;;;;;20.20;37.10;;;;;;5094770;28;19975;-46
2022/03/03 01:25:24;;;;;;;;;;;20.20;37.10;;;;;;5097772;28;20030;-43
2022/03/03 01:27:50;;;;;;;;;;;20.20;37.10;;;;;;5097400;28;20372;-47
2022/03/03 01:30:17;;;;;;;;;;;20.20;37.10;;;;;;5096476;28;19947;-48
2022/03/03 01:32:44;;;;;;;;;;;20.20;37.10;;;;;;5100787;28;19920;-44
2022/03/03 01:35:11;;;;;;;;;;;20.20;37.00;;;;;;5087011;28;19923;-48
2022/03/03 01:37:40;;;;;;;;;;;20.20;37.00;;;;;;5080626;28;19977;-47
2022/03/03 01:40:07;;;;;;;;;;;20.20;37.00;;;;;;5091443;28;19969;-43
2022/03/03 01:42:34;;;;;;;;;;;20.20;37.00;;;;;;5097098;28;20327;-45
2022/03/03 01:45:01;;;;;;;;;;;20.20;37.00;;;;;;5100638;28;19923;-47
2022/03/03 01:47:28;;;;;;;;;;;20.10;37.00;;;;;;5083405;28;20003;-44
2022/03/03 01:49:55;;;;;;;;;;;20.20;37.00;;;;;;5093598;28;19941;-49
2022/03/03 01:52:22;;;;;;;;;;;20.10;36.90;;;;;;5094914;28;19928;-47
2022/03/03 01:54:50;;;;;;;;;;;20.20;37.00;;;;;;5083410;28;19942;-46
2022/03/03 01:57:17;;;;;;;;;;;20.10;37.00;;;;;;5098688;28;19919;-48
2022/03/03 01:59:44;;;;;;;;;;;20.10;36.90;;;;;;5081382;28;20369;-49
2022/03/03 02:05:21;;;;;;;;;;;20.10;37.00;;;;;;5104320;28;19927;-44
2022/03/03 02:07:47;;;;;;;;;;;20.10;36.90;;;;;;5090794;28;19964;-44
2022/03/03 02:10:15;;;;;;;;;;;20.10;36.90;;;;;;5113001;28;19963;-44
2022/03/03 02:12:42;;;;;;;;;;;20.10;36.90;;;;;;5096448;28;20400;-47
2022/03/03 02:15:15;;;;;;;;;;;20.10;36.90;;;;;;5099043;28;19972;-43
2022/03/03 02:17:42;;;;;;;;;;;20.10;36.90;;;;;;5094470;28;19931;-41
2022/03/03 02:20:11;;;;;;;;;;;20.10;36.90;;;;;;5079577;28;19920;-44
2022/03/03 02:22:38;;;;;;;;;;;20.10;36.90;;;;;;5096275;28;20377;-46
2022/03/03 02:25:04;;;;;;;;;;;20.10;36.90;;;;;;5105932;28;19919;-44
2022/03/03 02:27:31;;;;;;;;;;;20.10;36.90;;;;;;5077060;28;19928;-46
2022/03/03 02:29:58;;;;;;;;;;;20.10;36.90;;;;;;5078952;28;19982;-42
2022/03/03 02:32:25;;;;;;;;;;;20.10;36.90;;;;;;5098595;28;19934;-41
2022/03/03 02:34:52;;;;;;;;;;;20.10;36.80;;;;;;5126553;27;19987;-48
2022/03/03 02:37:20;;;;;;;;;;;20.10;36.80;;;;;;5097738;28;19923;-44
2022/03/03 02:39:46;;;;;;;;;;;20.10;36.80;;;;;;5112032;28;19920;-43
2022/03/03 02:42:13;;;;;;;;;;;20.10;36.80;;;;;;5077462;28;20006;-48
2022/03/03 02:44:40;;;;;;;;;;;20.10;36.80;;;;;;5077747;28;19928;-42
2022/03/03 02:47:07;;;;;;;;;;;20.10;36.80;;;;;;5086293;28;19945;-46
2022/03/03 02:49:33;;;;;;;;;;;20.10;36.80;;;;;;5096862;28;19923;-47
2022/03/03 02:52:00;;;;;;;;;;;20.10;36.80;;;;;;5097158;28;19972;-45
2022/03/03 02:54:29;;;;;;;;;;;20.10;36.80;;;;;;5087601;28;19924;-46
2022/03/03 02:59:40;;;;;;;;;;;20.10;36.70;;;;;;5105459;28;20353;-47
2022/03/03 03:02:06;;;;;;;;;;;20.10;36.70;;;;;;5076925;28;19985;-44
2022/03/03 03:04:33;;;;;;;;;;;20.10;36.70;;;;;;5111945;28;20222;-45
2022/03/03 03:07:00;;;;;;;;;;;20.10;36.70;;;;;;5111710;28;20357;-44
2022/03/03 03:09:26;;;;;;;;;;;20.10;36.70;;;;;;5078225;28;20304;-42
2022/03/03 03:11:54;;;;;;;;;;;20.10;36.70;;;;;;5095952;28;20029;-43
2022/03/03 03:14:21;;;;;;;;;;;20.10;36.80;;;;;;5080058;28;19947;-48
2022/03/03 03:16:48;;;;;;;;;;;20.10;36.70;;;;;;5101077;28;19935;-44
2022/03/03 03:19:15;;;;;;;;;;;20.10;36.70;;;;;;5118588;28;19920;-45
2022/03/03 03:21:41;;;;;;;;;;;20.10;36.70;;;;;;5118667;28;19926;-49
2022/03/03 03:24:08;;;;;;;;;;;20.10;36.70;;;;;;5118109;28;20006;-46
2022/03/03 03:26:35;;;;;;;;;;;20.10;36.70;;;;;;5112394;28;19928;-46
2022/03/03 03:29:03;;;;;;;;;;;20.10;36.70;;;;;;5080612;28;19924;-46
2022/03/03 03:31:30;;;;;;;;;;;20.10;36.70;;;;;;5081750;28;19958;-42
2022/03/03 03:33:57;;;;;;;;;;;20.10;36.70;;;;;;5082337;28;19977;-45
2022/03/03 03:36:24;;;;;;;;;;;20.10;36.60;;;;;;5100756;28;19920;-44
2022/03/03 03:38:51;;;;;;;;;;;20.10;36.60;;;;;;5117720;28;20019;-45
2022/03/03 03:41:17;;;;;;;;;;;20.10;36.60;;;;;;5100022;28;19923;-46
2022/03/03 03:43:45;;;;;;;;;;;20.10;36.60;;;;;;5097914;28;20026;-47
2022/03/03 03:46:13;;;;;;;;;;;20.10;36.60;;;;;;5103275;28;19926;-45
2022/03/03 03:48:39;;;;;;;;;;;20.10;36.60;;;;;;5089740;28;19967;-45
2022/03/03 03:51:06;;;;;;;;;;;20.00;36.60;;;;;;5077558;28;20330;-48
2022/03/03 03:53:33;;;;;;;;;;;20.10;36.60;;;;;;5094585;28;19924;-45
2022/03/03 03:56:00;;;;;;;;;;;20.00;36.50;;;;;;5116241;28;20373;-46
2022/03/03 03:58:27;;;;;;;;;;;20.10;36.60;;;;;;5098484;28;19923;-48
2022/03/03 04:00:53;;;;;;;;;;;20.10;36.50;;;;;;5115641;28;19951;-43
2022/03/03 04:03:21;;;;;;;;;;;20.00;36.50;;;;;;5117075;28;19927;-47
2022/03/03 04:05:48;;;;;;;;;;;20.10;36.50;;;;;;5117147;28;19919;-47
2022/03/03 04:08:15;;;;;;;;;;;20.10;36.50;;;;;;5109889;28;20233;-47
2022/03/03 04:10:42;;;;;;;;;;;20.00;36.50;;;;;;5110351;28;19920;-45
2022/03/03 04:13:12;;;;;;;;;;;20.10;36.50;;;;;;5099744;28;19999;-45
2022/03/03 04:15:39;;;;;;;;;;;20.10;36.50;;;;;;5110287;28;19977;-48
2022/03/03 04:18:05;;;;;;;;;;;20.10;36.50;;;;;;5090693;28;20035;-46
2022/03/03 04:20:34;;;;;;;;;;;20.10;36.50;;;;;;5079228;28;19924;-47
2022/03/03 04:23:01;;;;;;;;;;;20.00;36.40;;;;;;5097766;28;20392;-44
2022/03/03 04:25:28;;;;;;;;;;;20.00;36.40;;;;;;5093204;28;19932;-45
2022/03/03 04:27:55;;;;;;;;;;;20.10;36.50;;;;;;5098603;28;19920;-47
2022/03/03 04:30:21;;;;;;;;;;;20.10;37.00;;;;;;5087618;28;19924;-42
2022/03/03 04:32:48;;;;;;;;;;;20.00;36.40;;;;;;5078826;28;19924;-44
2022/03/03 04:35:15;;;;;;;;;;;20.00;36.40;;;;;;5111075;27;19925;-47
2022/03/03 04:37:43;;;;;;;;;;;20.00;36.40;;;;;;5083082;28;20261;-45
2022/03/03 04:40:10;;;;;;;;;;;20.00;36.40;;;;;;5100592;28;19975;-44
2022/03/03 04:42:37;;;;;;;;;;;20.00;36.40;;;;;;5079451;28;19955;-47
2022/03/03 04:45:06;;;;;;;;;;;20.00;36.40;;;;;;5089644;28;19927;-44
2022/03/03 04:47:33;;;;;;;;;;;20.00;36.40;;;;;;5098211;28;19920;-44
2022/03/03 04:50:00;;;;;;;;;;;20.00;36.30;;;;;;5092132;28;19950;-44
2022/03/03 04:52:26;;;;;;;;;;;20.00;36.40;;;;;;5078841;28;19924;-44
2022/03/03 04:54:54;;;;;;;;;;;20.00;36.40;;;;;;5087763;28;19920;-46
2022/03/03 04:57:21;;;;;;;;;;;20.00;36.30;;;;;;5098505;28;19946;-44
2022/03/03 04:59:48;;;;;;;;;;;20.00;36.30;;;;;;5099595;28;19926;-45
2022/03/03 05:02:15;;;;;;;;;;;20.00;36.30;;;;;;5090342;28;19926;-43
2022/03/03 05:04:42;;;;;;;;;;;20.00;36.30;;;;;;5093421;28;19947;-45
2022/03/03 05:07:09;;;;;;;;;;;20.00;36.30;;;;;;5099539;28;19995;-47
2022/03/03 05:09:36;;;;;;;;;;;20.00;36.30;;;;;;5088263;28;19919;-45
2022/03/03 05:12:06;;;;;;;;;;;20.00;36.30;;;;;;5117718;28;20422;-44
2022/03/03 05:14:32;;;;;;;;;;;20.00;36.30;;;;;;5116063;28;20383;-43
2022/03/03 05:16:59;;;;;;;;;;;20.00;36.30;;;;;;5099444;28;19927;-45
2022/03/03 05:19:26;;;;;;;;;;;20.00;36.30;;;;;;5098555;28;19919;-43
2022/03/03 05:21:52;;;;;;;;;;;20.00;36.20;;;;;;5098124;28;19920;-42
2022/03/03 05:24:19;;;;;;;;;;;20.00;36.20;;;;;;5115803;28;19943;-42
2022/03/03 05:26:46;;;;;;;;;;;20.00;36.20;;;;;;5117526;28;19973;-44
2022/03/03 05:29:14;;;;;;;;;;;20.00;36.20;;;;;;5100488;28;19954;-47
2022/03/03 05:31:42;;;;;;;;;;;20.00;36.20;;;;;;5100382;28;19924;-46
2022/03/03 05:34:09;;;;;;;;;;;20.00;36.20;;;;;;5087146;28;19920;-47
2022/03/03 05:36:37;;;;;;;;;;;20.00;36.20;;;;;;5097216;28;19943;-42
2022/03/03 05:39:04;;;;;;;;;;;20.00;36.30;;;;;;5092647;28;19979;-44
2022/03/03 05:41:31;;;;;;;;;;;20.00;36.20;;;;;;5093652;28;19988;-42
2022/03/03 05:43:58;;;;;;;;;;;20.00;36.20;;;;;;5100793;28;19923;-43
2022/03/03 05:46:26;;;;;;;;;;;20.00;36.20;;;;;;5087747;28;19924;-43
2022/03/03 05:48:52;;;;;;;;;;;20.00;36.10;;;;;;5101344;28;19931;-44
2022/03/03 05:51:19;;;;;;;;;;;20.00;36.20;;;;;;5101368;28;19931;-43
2022/03/03 05:53:46;;;;;;;;;;;20.00;36.10;;;;;;5098278;28;19931;-44
2022/03/03 05:56:13;;;;;;;;;;;20.00;36.10;;;;;;5094839;28;19927;-45
2022/03/03 05:58:41;;;;;;;;;;;20.00;36.10;;;;;;5105604;28;20392;-45
2022/03/03 06:01:09;;;;;;;;;;;20.00;36.10;;;;;;5096677;28;19947;-44
2022/03/03 06:03:37;;;;;;;;;;;20.00;36.10;;;;;;5080515;28;19984;-42
2022/03/03 06:06:05;;;;;;;;;;;20.00;36.10;;;;;;5116587;28;20454;-42
2022/03/03 06:08:47;;;;;;;;;;;20.00;36.10;;;;;;5112427;28;19954;-45
2022/03/03 06:11:15;;;;;;;;;;;20.00;36.10;;;;;;5112647;28;20215;-45
2022/03/03 06:13:45;;;;;;;;;;;20.00;36.10;;;;;;5115086;28;19923;-45
2022/03/03 06:16:11;;;;;;;;;;;20.00;36.10;;;;;;5119494;27;19955;-47
2022/03/03 06:18:39;;;;;;;;;;;20.00;36.10;;;;;;5112937;28;19920;-44
2022/03/03 06:21:17;;;;;;;;;;;20.00;36.10;;;;;;5095578;28;19970;-43
2022/03/03 06:23:49;;;;;;;;;;;20.00;36.10;;;;;;5098566;28;19969;-48
2022/03/03 06:26:17;;;;;;;;;;;20.00;36.10;;;;;;5096386;28;20570;-46
2022/03/03 06:28:44;;;;;;;;;;;20.00;36.10;;;;;;5076199;28;19965;-45
2022/03/03 06:31:10;;;;;;;;;;;20.00;36.10;;;;;;5095459;28;19924;-46
2022/03/03 06:33:37;;;;;;;;;;;19.90;36.00;;;;;;5095753;28;19946;-43
2022/03/03 06:36:06;;;;;;;;;;;20.00;36.10;;;;;;5114953;28;20357;-46
2022/03/03 06:38:34;;;;;;;;;;;20.00;36.10;;;;;;5098138;28;20237;-45
2022/03/03 06:41:05;;;;;;;;;;;20.00;36.10;;;;;;5092292;28;19962;-45
2022/03/03 06:43:32;;;;;;;;;;;20.00;36.10;;;;;;5081713;28;19927;-46
2022/03/03 06:45:59;;;;;;;;;;;20.00;36.10;;;;;;5095196;28;19920;-45
2022/03/03 06:48:26;;;;;;;;;;;20.00;36.10;;;;;;5096577;28;19927;-45
2022/03/03 06:50:53;;;;;;;;;;;20.00;36.10;;;;;;5095799;28;20018;-43
2022/03/03 06:53:22;;;;;;;;;;;20.00;36.10;;;;;;5095035;28;19958;-44
2022/03/03 06:55:49;;;;;;;;;;;20.00;36.10;;;;;;5096152;28;19923;-46
2022/03/03 06:58:16;;;;;;;;;;;20.00;36.10;;;;;;5111855;28;19927;-44
2022/03/03 07:00:42;;;;;;;;;;;20.00;36.10;;;;;;5093171;28;19921;-42
2022/03/03 07:03:10;;;;;;;;;;;20.00;36.00;;;;;;5114809;28;19967;-43
2022/03/03 07:05:37;;;;;;;;;;;20.00;36.10;;;;;;5094386;28;19967;-43
2022/03/03 07:08:04;;;;;;;;;;;20.00;36.00;;;;;;5091891;28;19963;-45
2022/03/03 07:10:32;;;;;;;;;;;20.00;36.00;;;;;;5096900;28;20323;-47
2022/03/03 07:12:59;;;;;;;;;;;20.00;36.00;;;;;;5090836;28;19920;-42
2022/03/03 07:15:26;;;;;;;;;;;20.00;36.00;;;;;;5112948;28;19947;-45
2022/03/03 07:17:53;;;;;;;;;;;20.00;36.00;;;;;;5113977;28;19923;-43
2022/03/03 07:20:24;;;;;;;;;;;20.00;36.00;;;;;;5095100;28;19978;-44
2022/03/03 07:23:00;;;;;;;;;;;20.00;36.00;;;;;;5082848;28;19923;-45
2022/03/03 07:25:28;;;;;;;;;;;20.00;35.90;;;;;;5094658;28;19924;-46
2022/03/03 07:27:57;;;;;;;;;;;20.00;35.90;;;;;;5094895;28;20006;-45
2022/03/03 07:30:23;;;;;;;;;;;20.00;35.90;;;;;;5127640;27;19920;-45
2022/03/03 07:32:52;;;;;;;;;;;19.90;35.80;;;;;;5097467;28;19932;-48
2022/03/03 07:35:22;;;;;;;;;;;20.00;35.90;;;;;;5082245;28;19939;-43
2022/03/03 07:37:52;;;;;;;;;;;20.00;36.00;;;;;;5115302;28;19928;-45
2022/03/03 07:40:18;;;;;;;;;;;20.00;36.00;;;;;;5089361;28;19920;-43
2022/03/03 07:42:45;;;;;;;;;;;20.00;36.00;;;;;;5090487;28;19920;-43
2022/03/03 07:45:14;;;;;;;;;;;20.00;36.00;;;;;;5108446;28;19924;-45
2022/03/03 07:47:41;;;;;;;;;;;20.00;36.00;;;;;;5081340;28;20034;-45
2022/03/03 07:50:08;;;;;;;;;;;20.00;36.10;;;;;;5083991;28;20308;-46
2022/03/03 07:52:35;;;;;;;;;;;20.00;36.10;;;;;;5087653;28;19926;-47
2022/03/03 07:55:01;;;;;;;;;;;20.00;36.10;;;;;;5087845;28;20177;-46
2022/03/03 07:57:32;;;;;;;;;;;20.00;36.10;;;;;;5111354;28;19974;-44
2022/03/03 08:00:02;;;;;;;;;;;20.00;36.10;;;;;;5105986;28;19920;-43
2022/03/03 08:02:30;;;;;;;;;;;20.00;36.10;;;;;;5111387;28;19923;-42
2022/03/03 08:04:57;;;;;;;;;;;20.00;36.10;;;;;;5111477;28;19963;-43
2022/03/03 08:07:27;;;;;;;;;;;20.10;36.20;;;;;;5090178;28;20443;-43
2022/03/03 08:09:55;;;;;;;;;;;20.10;36.20;;;;;;5094931;28;19932;-46
2022/03/03 08:12:21;;;;;;;;;;;20.10;36.20;;;;;;5090773;28;19994;-45
2022/03/03 08:14:48;;;;;;;;;;;20.10;36.20;;;;;;5095261;28;19985;-45
2022/03/03 08:17:15;;;;;;;;;;;20.10;36.30;;;;;;5092002;28;19938;-43
2022/03/03 08:19:45;;;;;;;;;;;20.10;36.30;;;;;;5091754;28;20011;-47
2022/03/03 08:22:13;;;;;;;;;;;20.10;36.30;;;;;;5088833;28;20276;-44
2022/03/03 08:24:43;;;;;;;;;;;20.10;36.30;;;;;;5088764;28;19926;-45
2022/03/03 08:27:10;;;;;;;;;;;20.10;36.30;;;;;;5088813;28;19927;-44
2022/03/03 08:29:36;;;;;;;;;;;20.10;36.30;;;;;;5091533;28;19953;-44
2022/03/03 08:32:04;;;;;;;;;;;20.10;36.30;;;;;;5106964;28;19999;-43
2022/03/03 08:34:34;;;;;;;;;;;20.10;36.40;;;;;;5093222;28;19962;-43
2022/03/03 08:37:03;;;;;;;;;;;20.10;36.40;;;;;;5093384;28;19942;-42
2022/03/03 08:39:29;;;;;;;;;;;20.20;36.40;;;;;;5114167;28;20019;-43
2022/03/03 08:41:56;;;;;;;;;;;20.20;36.50;;;;;;5079539;28;19939;-43
2022/03/03 08:44:23;;;;;;;;;;;20.20;36.50;;;;;;5094579;28;19920;-48
2022/03/03 08:46:50;;;;;;;;;;;20.10;36.40;;;;;;5091520;28;19920;-44
2022/03/03 08:49:17;;;;;;;;;;;20.20;36.50;;;;;;5095068;28;19927;-43
2022/03/03 08:51:44;;;;;;;;;;;20.20;36.50;;;;;;5092555;28;19926;-44
2022/03/03 08:54:13;;;;;;;;;;;20.20;36.50;;;;;;5089743;28;20018;-43
2022/03/03 08:56:41;;;;;;;;;;;20.20;36.50;;;;;;5091570;28;19926;-43
2022/03/03 08:59:07;;;;;;;;;;;20.20;36.50;;;;;;5091507;28;19996;-43
2022/03/03 09:01:34;;;;;;;;;;;20.20;36.50;;;;;;5094511;28;19923;-44
2022/03/03 09:04:01;;;;;;;;;;;20.20;36.50;;;;;;5092190;28;19919;-44
2022/03/03 09:06:28;;;;;;;;;;;20.20;36.50;;;;;;5117666;27;19927;-43
2022/03/03 09:08:55;;;;;;;;;;;20.20;36.60;;;;;;5105258;28;19934;-46
2022/03/03 09:11:23;;;;;;;;;;;20.20;36.60;;;;;;5088352;28;19924;-46
2022/03/03 09:13:50;;;;;;;;;;;20.20;36.60;;;;;;5106464;28;19919;-46
2022/03/03 09:16:17;;;;;;;;;;;20.20;36.60;;;;;;5091293;28;19947;-45
2022/03/03 09:18:44;;;;;;;;;;;20.20;36.60;;;;;;5092285;28;20026;-46
2022/03/03 09:21:11;;;;;;;;;;;20.20;36.60;;;;;;5088964;28;19969;-46
2022/03/03 09:23:38;;;;;;;;;;;20.20;36.60;;;;;;5118498;27;20326;-49
2022/03/03 09:26:04;;;;;;;;;;;20.20;36.60;;;;;;5092276;28;19919;-44
2022/03/03 09:28:33;;;;;;;;;;;20.30;36.70;;;;;;5110290;28;19924;-43
2022/03/03 09:30:59;;;;;;;;;;;20.20;36.70;;;;;;5091713;28;19926;-44
2022/03/03 09:33:26;;;;;;;;;;;20.20;36.70;;;;;;5092194;28;19920;-47
2022/03/03 09:35:53;;;;;;;;;;;20.30;36.80;;;;;;5092333;28;20410;-45
2022/03/03 09:38:20;;;;;;;;;;;20.30;36.70;;;;;;5092881;28;20332;-45
2022/03/03 09:40:48;;;;;;;;;;;20.30;36.80;;;;;;5126674;27;19926;-50
2022/03/03 09:43:14;;;;;;;;;;;20.30;36.80;;;;;;5094140;28;20376;-45
2022/03/03 09:45:42;;;;;;;;;;;20.30;36.80;;;;;;5079860;28;19993;-46
2022/03/03 09:48:09;;;;;;;;;;;20.30;36.80;;;;;;5093419;28;19919;-44
2022/03/03 09:50:37;;;;;;;;;;;20.30;36.80;;;;;;5090380;28;20395;-49
2022/03/03 09:53:05;;;;;;;;;;;20.30;36.80;;;;;;5111655;28;19924;-47
2022/03/03 09:55:32;;;;;;;;;;;20.30;36.80;;;;;;5092573;28;19924;-44
2022/03/03 09:57:59;;;;;;;;;;;20.30;36.80;;;;;;5107851;28;19980;-44
2022/03/03 10:00:29;;;;;;;;;;;20.30;36.80;;;;;;5092649;28;20279;-45
2022/03/03 10:03:03;;;;;;;;;;;20.30;36.80;;;;;;5090397;28;20301;-45
2022/03/03 10:05:33;;;;;;;;;;;20.30;36.80;;;;;;5109230;28;19920;-43
2022/03/03 10:08:01;;;;;;;;;;;20.30;36.80;;;;;;5091582;28;20347;-44
2022/03/03 10:10:27;;;;;;;;;;;20.30;36.80;;;;;;5092364;28;20336;-46
2022/03/03 10:12:56;;;;;;;;;;;20.30;36.80;;;;;;5092953;28;19977;-44
2022/03/03 10:15:24;;;;;;;;;;;20.30;36.80;;;;;;5091293;28;19919;-44
2022/03/03 10:17:55;;;;;;;;;;;20.30;36.90;;;;;;5090213;28;19975;-46
2022/03/03 10:20:23;;;;;;;;;;;20.30;36.90;;;;;;5108227;28;19923;-45
2022/03/03 10:22:57;;;;;;;;;;;20.30;36.90;;;;;;5111086;27;19980;-44
2022/03/03 10:25:31;;;;;;;;;;;20.30;36.90;;;;;;5089720;28;19981;-49
2022/03/03 10:28:02;;;;;;;;;;;20.30;36.90;;;;;;5110744;28;19951;-43
2022/03/03 10:30:29;;;;;;;;;;;20.30;36.90;;;;;;5108339;28;19927;-43
2022/03/03 10:32:56;;;;;;;;;;;20.30;36.90;;;;;;5091037;28;19930;-47
2022/03/03 10:35:25;;;;;;;;;;;20.30;37.50;;;;;;5090835;28;19996;-47
2022/03/03 10:37:52;;;;;;;;;;;20.30;36.90;;;;;;5089146;28;20253;-45
2022/03/03 10:40:18;;;;;;;;;;;20.30;36.90;;;;;;5088884;28;20417;-44
2022/03/03 10:42:46;;;;;;;;;;;20.30;36.90;;;;;;5107819;28;19984;-43
2022/03/03 10:45:17;;;;;;;;;;;20.40;37.00;;;;;;5086521;28;23320;-45
2022/03/03 10:47:44;;;;;;;;;;;20.40;37.00;;;;;;5085994;28;20284;-55
2022/03/03 10:50:11;;;;;;;;;;;20.30;33.50;;;;;;5082089;28;19997;-52
2022/03/03 10:52:40;;;;;;;;;;;20.20;31.30;;;;;;5087409;28;20376;-54
2022/03/03 10:55:10;;;;;;;;;;;20.10;32.10;;;;;;5088011;28;19923;-52
2022/03/03 10:57:38;;;;;;;;;;;20.00;32.80;;;;;;5089442;28;19965;-49
2022/03/03 11:00:07;;;;;;;;;;;19.90;33.20;;;;;;5106427;28;19923;-44
2022/03/03 11:02:33;;;;;;;;;;;19.90;33.80;;;;;;5092373;28;19920;-46
2022/03/03 11:05:00;;;;;;;;;;;19.90;34.20;;;;;;5091080;28;19923;-44
2022/03/03 11:07:27;;;;;;;;;;;19.90;34.60;;;;;;5092711;28;20318;-44
2022/03/03 11:09:55;;;;;;;;;;;19.90;34.80;;;;;;5090711;28;19919;-47
2022/03/03 11:12:22;;;;;;;;;;;19.90;35.00;;;;;;5091601;28;19987;-44
2022/03/03 11:14:49;;;;;;;;;;;19.90;35.20;;;;;;5093174;28;20318;-44
2022/03/03 11:17:15;;;;;;;;;;;19.90;35.30;;;;;;5091620;28;20396;-44
2022/03/03 11:19:42;;;;;;;;;;;20.00;35.50;;;;;;5090536;28;19919;-44
2022/03/03 11:22:09;;;;;;;;;;;20.00;35.50;;;;;;5116177;28;19924;-47
2022/03/03 11:24:37;;;;;;;;;;;20.00;35.70;;;;;;5086464;28;20353;-44
2022/03/03 11:27:05;;;;;;;;;;;20.00;35.70;;;;;;5090287;28;19942;-46
2022/03/03 11:29:36;;;;;;;;;;;20.00;35.80;;;;;;5088449;28;20072;-46
2022/03/03 11:32:04;;;;;;;;;;;20.00;35.80;;;;;;5098013;28;19920;-45
2022/03/03 11:34:39;;;;;;;;;;;20.00;35.90;;;;;;5107143;28;19920;-44
2022/03/03 11:37:07;;;;;;;;;;;20.00;35.90;;;;;;5094433;28;20155;-48
2022/03/03 11:39:45;;;;;;;;;;;20.10;36.00;;;;;;5091160;28;19984;-46
2022/03/03 11:42:29;;;;;;;;;;;20.10;36.10;;;;;;5108876;28;19920;-47
2022/03/03 11:44:57;;;;;;;;;;;20.10;36.10;;;;;;5092986;28;21281;-43
2022/03/03 11:47:25;;;;;;;;;;;20.10;36.10;;;;;;5090835;28;20018;-44
2022/03/03 11:50:05;;;;;;;;;;;20.10;36.10;;;;;;5090015;28;19959;-44
2022/03/03 11:52:33;;;;;;;;;;;20.10;36.20;;;;;;5107256;28;19919;-43
2022/03/03 11:55:00;;;;;;;;;;;20.10;36.20;;;;;;5114428;27;19942;-45
2022/03/03 11:57:28;;;;;;;;;;;20.10;36.20;;;;;;5093597;28;19926;-48
2022/03/03 12:00:01;;;;;;;;;;;20.10;36.30;;;;;;5093180;28;20006;-46
2022/03/03 12:02:28;;;;;;;;;;;20.10;36.30;;;;;;5111831;27;19927;-45
2022/03/03 12:05:10;;;;;;;;;;;20.10;36.30;;;;;;5092424;28;20295;-44
2022/03/03 12:07:36;;;;;;;;;;;20.10;36.40;;;;;;5086440;28;20039;-45
2022/03/03 12:10:12;;;;;;;;;;;20.20;36.40;;;;;;5081408;28;19927;-45
2022/03/03 12:12:41;;;;;;;;;;;20.20;36.40;;;;;;5090749;28;20015;-45
2022/03/03 12:15:10;;;;;;;;;;;20.20;36.40;;;;;;5076730;28;19923;-45
2022/03/03 12:17:43;;;;;;;;;;;20.20;36.40;;;;;;5086540;28;19923;-45
2022/03/03 12:20:30;;;;;;;;;;;20.20;36.40;;;;;;5103311;28;19925;-50
2022/03/03 12:23:01;;;;;;;;;;;20.20;36.50;;;;;;5083428;28;19926;-45
2022/03/03 12:25:55;;;;;;;;;;;20.20;36.50;;;;;;5083803;28;20449;-45
2022/03/03 12:28:22;;;;;;;;;;;20.20;36.50;;;;;;5074054;28;19934;-44
2022/03/03 12:30:51;;;;;;;;;;;20.20;36.50;;;;;;5086427;28;19928;-45
2022/03/03 12:33:20;;;;;;;;;;;20.20;36.60;;;;;;5099457;28;19924;-46
2022/03/03 12:35:47;;;;;;;;;;;20.20;36.50;;;;;;5072870;28;20586;-50
2022/03/03 12:38:14;;;;;;;;;;;20.20;36.50;;;;;;5090812;28;19991;-45
2022/03/03 12:40:41;;;;;;;;;;;20.20;36.60;;;;;;5089373;28;19924;-43
2022/03/03 12:43:11;;;;;;;;;;;20.20;36.60;;;;;;5093392;28;20275;-44
2022/03/03 12:45:38;;;;;;;;;;;20.20;36.60;;;;;;5091762;28;19931;-48
2022/03/03 12:48:07;;;;;;;;;;;20.20;36.60;;;;;;5072145;28;20028;-45
2022/03/03 12:50:35;;;;;;;;;;;20.20;36.60;;;;;;5087644;28;19927;-48
2022/03/03 12:53:06;;;;;;;;;;;20.20;36.60;;;;;;5089379;28;20279;-47
2022/03/03 12:55:34;;;;;;;;;;;20.30;36.70;;;;;;5103759;28;19919;-47
2022/03/03 12:58:01;;;;;;;;;;;20.30;36.70;;;;;;5089743;28;19985;-43
2022/03/03 13:00:28;;;;;;;;;;;20.30;36.70;;;;;;5091574;28;19928;-46
2022/03/03 13:02:55;;;;;;;;;;;20.30;36.80;;;;;;5112137;28;19920;-47
2022/03/03 13:05:41;;;;;;;;;;;20.30;36.80;;;;;;5113145;28;20003;-46
2022/03/03 13:08:09;;;;;;;;;;;20.30;36.80;;;;;;5093486;28;20375;-45
2022/03/03 13:10:36;;;;;;;;;;;20.30;36.80;;;;;;5094489;28;19920;-44
2022/03/03 13:13:03;;;;;;;;;;;20.30;36.80;;;;;;5091373;28;19925;-44
2022/03/03 13:15:30;;;;;;;;;;;20.30;36.80;;;;;;5091483;28;19924;-43
2022/03/03 13:17:58;;;;;;;;;;;20.30;36.80;;;;;;5107145;28;20054;-44
2022/03/03 13:20:25;;;;;;;;;;;20.30;36.90;;;;;;5091105;28;20368;-48
2022/03/03 13:22:53;;;;;;;;;;;20.30;36.90;;;;;;5089647;28;19927;-47
2022/03/03 13:25:21;;;;;;;;;;;20.30;36.90;;;;;;5091413;28;19942;-46
2022/03/03 13:27:48;;;;;;;;;;;20.40;37.00;;;;;;5091201;28;19951;-44
2022/03/03 13:30:15;;;;;;;;;;;20.30;36.90;;;;;;5106985;28;19987;-44
2022/03/03 13:32:46;;;;;;;;;;;20.40;37.00;;;;;;5094495;28;20092;-43
2022/03/03 13:35:12;;;;;;;;;;;20.40;37.00;;;;;;5087734;28;19927;-46
2022/03/03 13:37:39;;;;;;;;;;;20.40;37.10;;;;;;5110585;28;19923;-45
2022/03/03 13:40:15;;;;;;;;;;;20.40;37.00;;;;;;5089142;28;20383;-47
2022/03/03 13:42:41;;;;;;;;;;;20.40;37.00;;;;;;5089318;28;19920;-44
2022/03/03 13:45:09;;;;;;;;;;;20.40;37.10;;;;;;5090925;28;20299;-44
2022/03/03 13:47:39;;;;;;;;;;;20.40;37.10;;;;;;5104790;28;19956;-45
2022/03/03 13:50:06;;;;;;;;;;;20.40;37.20;;;;;;5085236;28;19936;-44
2022/03/03 13:52:33;;;;;;;;;;;20.40;37.20;;;;;;5094232;28;19989;-45
2022/03/03 13:55:02;;;;;;;;;;;20.40;37.20;;;;;;5089589;28;19959;-43
2022/03/03 13:57:37;;;;;;;;;;;20.40;37.20;;;;;;5112165;27;19924;-44
2022/03/03 14:00:05;;;;;;;;;;;20.40;37.20;;;;;;5093760;28;19976;-44
2022/03/03 14:02:32;;;;;;;;;;;20.40;37.30;;;;;;5094024;28;19919;-43
2022/03/03 14:04:59;;;;;;;;;;;20.40;37.20;;;;;;5095633;28;19973;-44
2022/03/03 14:07:27;;;;;;;;;;;20.40;37.30;;;;;;5088531;28;20156;-45
2022/03/03 14:09:57;;;;;;;;;;;20.50;37.30;;;;;;5109442;28;19919;-43
2022/03/03 14:12:24;;;;;;;;;;;20.50;37.40;;;;;;5104858;28;19930;-43
2022/03/03 14:14:52;;;;;;;;;;;20.40;37.30;;;;;;5088542;28;20270;-43
2022/03/03 14:17:19;;;;;;;;;;;20.50;37.40;;;;;;5091987;28;20262;-45
2022/03/03 14:19:46;;;;;;;;;;;20.50;37.40;;;;;;5086651;28;19931;-48
2022/03/03 14:22:17;;;;;;;;;;;20.50;37.40;;;;;;5088097;28;19923;-48
2022/03/03 14:24:43;;;;;;;;;;;20.50;37.40;;;;;;5087451;28;20287;-47
2022/03/03 14:27:10;;;;;;;;;;;20.50;37.40;;;;;;5106522;28;19930;-47